Time;durP1;ratioP1;P1;durP2;ratioP2;P2;SDS_P1;SDS_P2;PMS_P1;PMS_P2;Temp;Humidity;BMP_temperature;BMP_pressure;BME280_temperature;BME280_humidity;BME280_pressure;Samples;Min_cycle;Max_cycle;Signal;HPM_P1;HPM_P2
2022/09/03 00:01:23;;;;;;;4.12;2.10;;;;;;;16.85;45.27;100832.69;1723934;83;21036;-72
2022/09/03 00:03:55;;;;;;;3.47;1.90;;;;;;;16.87;45.37;100824.53;1723483;81;21888;-70
2022/09/03 00:06:37;;;;;;;2.50;1.80;;;;;;;16.88;45.40;100832.38;1722332;83;21000;-71
2022/09/03 00:09:15;;;;;;;3.02;1.87;;;;;;;16.90;45.40;100826.08;1722858;83;21087;-74
2022/09/03 00:12:18;;;;;;;3.65;2.10;;;;;;;16.91;45.37;100827.75;1723512;83;21121;-72
2022/09/03 00:14:57;;;;;;;3.25;1.95;;;;;;;16.90;45.29;100829.59;1721538;83;21501;-70
2022/09/03 00:17:28;;;;;;;4.05;1.77;;;;;;;16.90;45.43;100830.92;1719999;82;21858;-71
2022/09/03 00:20:03;;;;;;;7.33;2.00;;;;;;;16.91;45.65;100832.59;1723844;81;21541;-71
2022/09/03 00:22:38;;;;;;;5.47;1.98;;;;;;;16.92;45.69;100830.27;1723095;83;21012;-71
2022/09/03 00:25:09;;;;;;;3.85;1.92;;;;;;;16.94;45.70;100836.28;1721796;83;20976;-72
2022/09/03 00:27:38;;;;;;;2.65;1.87;;;;;;;16.92;45.64;100830.27;1724213;83;21118;-72
2022/09/03 00:30:11;;;;;;;4.80;1.90;;;;;;;16.93;45.65;100819.94;1722907;83;22647;-72
2022/09/03 00:32:45;;;;;;;4.17;1.98;;;;;;;16.94;45.43;100812.27;1699419;83;20974;-73
2022/09/03 00:35:17;;;;;;;2.75;1.80;;;;;;;16.96;45.32;100816.95;1713881;81;20967;-73
2022/09/03 00:37:43;;;;;;;4.22;1.80;;;;;;;16.96;45.15;100819.63;1723938;81;21418;-72
2022/09/03 00:40:36;;;;;;;2.83;1.77;;;;;;;16.95;45.07;100815.77;1722645;83;22222;-73
2022/09/03 00:43:38;;;;;;;4.78;1.67;;;;;;;16.95;45.18;100818.44;1723753;83;22470;-73
2022/09/03 00:46:18;;;;;;;3.90;1.77;;;;;;;16.92;45.01;100818.26;1695718;83;21055;-73
2022/09/03 00:49:16;;;;;;;2.72;1.90;;;;;;;16.93;44.97;100823.09;1723171;81;21055;-73
2022/09/03 00:52:00;;;;;;;3.95;1.72;;;;;;;16.94;44.87;100820.77;1723714;83;21402;-72
2022/09/03 00:54:53;;;;;;;3.85;1.50;;;;;;;16.96;44.96;100827.63;1728823;81;21027;-73
2022/09/03 00:57:34;;;;;;;2.87;1.90;;;;;;;16.97;45.08;100827.13;1717349;83;21973;-73
2022/09/03 01:00:18;;;;;;;3.50;1.70;;;;;;;16.97;45.04;100824.45;1723592;83;20960;-73
2022/09/03 01:03:18;;;;;;;2.40;1.80;;;;;;;16.97;45.11;100822.63;1714716;82;20980;-72
2022/09/03 01:06:11;;;;;;;1.77;1.50;;;;;;;16.99;45.09;100826.50;1719654;81;21047;-73
2022/09/03 01:08:49;;;;;;;2.15;1.50;;;;;;;17.00;45.11;100826.84;1723170;82;21007;-72
2022/09/03 01:11:40;;;;;;;5.03;1.98;;;;;;;17.00;45.16;100826.34;1721720;83;22781;-72
2022/09/03 01:14:33;;;;;;;4.45;1.90;;;;;;;17.03;45.32;100821.19;1723182;83;21493;-73
2022/09/03 01:17:32;;;;;;;5.25;1.82;;;;;;;17.02;45.22;100823.03;1723032;83;21087;-72
2022/09/03 01:20:11;;;;;;;2.98;1.72;;;;;;;17.02;45.39;100819.52;1722923;83;47901;-72
2022/09/03 01:23:01;;;;;;;3.90;1.90;;;;;;;17.01;45.43;100817.84;1723530;83;21039;-72
2022/09/03 01:25:56;;;;;;;4.25;1.90;;;;;;;17.01;45.56;100817.34;1724057;81;21809;-72
2022/09/03 01:28:53;;;;;;;2.62;1.67;;;;;;;17.00;45.69;100815.67;1722859;83;21518;-73
2022/09/03 01:31:46;;;;;;;2.52;1.90;;;;;;;16.99;45.85;100820.67;1713728;83;20984;-73
2022/09/03 01:34:30;;;;;;;4.00;1.85;;;;;;;16.97;46.00;100823.96;1708867;82;21446;-73
2022/09/03 01:37:23;;;;;;;3.77;2.00;;;;;;;16.97;46.07;100815.95;1708189;84;21487;-73
2022/09/03 01:39:55;;;;;;;4.00;2.20;;;;;;;16.95;46.29;100815.28;1675621;84;21811;-73
2022/09/03 01:42:47;;;;;;;4.22;1.98;;;;;;;16.94;46.27;100816.77;1667747;86;21012;-73
2022/09/03 01:45:39;;;;;;;2.85;1.65;;;;;;;16.94;46.16;100816.77;1683341;83;21004;-73
2022/09/03 01:48:31;;;;;;;2.70;1.70;;;;;;;16.94;46.00;100822.94;1708061;84;21464;-73
2022/09/03 01:51:22;;;;;;;4.37;1.80;;;;;;;16.95;45.79;100824.61;1707887;83;21546;-73
2022/09/03 01:54:06;;;;;;;3.70;1.85;;;;;;;16.97;45.83;100826.63;1708737;84;21957;-72
2022/09/03 01:57:03;;;;;;;3.35;1.70;;;;;;;16.96;46.00;100827.63;1708880;84;21415;-74
2022/09/03 01:59:50;;;;;;;4.00;1.65;;;;;;;16.95;46.41;100826.45;1691556;84;21021;-73
2022/09/03 02:02:23;;;;;;;2.92;1.90;;;;;;;16.92;46.91;100824.09;1706185;84;20981;-73
2022/09/03 02:05:06;;;;;;;3.65;1.80;;;;;;;16.89;47.29;100825.24;1708081;84;21060;-73
2022/09/03 02:07:42;;;;;;;2.47;1.72;;;;;;;16.85;47.37;100825.19;1708225;84;21907;-73
2022/09/03 02:10:13;;;;;;;2.55;1.90;;;;;;;16.82;47.51;100822.83;1706193;84;21004;-74
2022/09/03 02:12:44;;;;;;;4.00;1.75;;;;;;;16.80;47.50;100823.48;1707315;82;20976;-73
2022/09/03 02:15:15;;;;;;;3.37;2.20;;;;;;;16.77;47.51;100824.59;1707588;84;21498;-74
2022/09/03 02:17:43;;;;;;;3.58;2.02;;;;;;;16.75;47.38;100824.41;1707168;84;20941;-73
2022/09/03 02:20:12;;;;;;;2.98;1.80;;;;;;;16.76;47.30;100824.75;1690879;84;22754;-73
2022/09/03 02:22:39;;;;;;;5.22;1.90;;;;;;;16.76;47.23;100820.75;1699053;82;21100;-73
2022/09/03 02:25:07;;;;;;;3.90;1.82;;;;;;;16.77;47.43;100821.09;1708249;82;21020;-73
2022/09/03 02:27:33;;;;;;;3.75;1.95;;;;;;;16.75;47.79;100824.41;1708906;84;21025;-73
2022/09/03 02:30:00;;;;;;;3.87;1.70;;;;;;;16.70;47.83;100834.22;1708007;84;20989;-72
2022/09/03 02:32:27;;;;;;;3.60;2.30;;;;;;;16.65;48.13;100829.78;1700490;83;22242;-73
2022/09/03 02:34:53;;;;;;;2.60;1.77;;;;;;;16.64;48.32;100840.59;1700113;83;20997;-73
2022/09/03 02:37:20;;;;;;;3.30;1.90;;;;;;;16.59;48.95;100841.88;1700527;84;21041;-73
2022/09/03 02:39:46;;;;;;;3.35;1.80;;;;;;;16.54;48.96;100837.99;1709658;83;21103;-73
2022/09/03 02:42:14;;;;;;;2.27;1.65;;;;;;;16.51;49.02;100835.14;1700527;84;21108;-73
2022/09/03 02:44:48;;;;;;;3.67;1.80;;;;;;;16.51;49.08;100835.14;1699628;84;21840;-73
2022/09/03 02:47:15;;;;;;;5.00;2.00;;;;;;;16.52;49.02;100835.97;1667464;86;21049;-72
2022/09/03 02:49:41;;;;;;;4.08;1.98;;;;;;;16.50;49.11;100830.80;1667862;86;21002;-73
2022/09/03 02:52:10;;;;;;;3.22;2.00;;;;;;;16.49;49.12;100832.25;1660534;86;21031;-72
2022/09/03 02:54:41;;;;;;;4.17;1.98;;;;;;;16.48;49.10;100827.91;1667648;84;21569;-72
2022/09/03 02:57:09;;;;;;;3.87;2.15;;;;;;;16.45;49.16;100838.38;1668277;86;21924;-72
2022/09/03 02:59:36;;;;;;;3.70;2.10;;;;;;;16.46;49.17;100837.89;1650328;86;21072;-72
2022/09/03 03:02:03;;;;;;;4.15;2.08;;;;;;;16.46;49.37;100846.72;1681044;85;20961;-72
2022/09/03 03:04:31;;;;;;;4.90;2.20;;;;;;;16.46;49.33;100845.39;1684715;84;21035;-73
2022/09/03 03:06:57;;;;;;;3.85;2.00;;;;;;;16.46;49.33;100840.06;1669175;83;21025;-73
2022/09/03 03:09:24;;;;;;;4.53;2.08;;;;;;;16.49;49.36;100845.58;1700898;84;21905;-73
2022/09/03 03:11:51;;;;;;;3.60;1.92;;;;;;;16.51;49.35;100844.47;1699643;84;20998;-73
2022/09/03 03:14:17;;;;;;;2.90;2.00;;;;;;;16.54;49.34;100849.49;1700620;83;21005;-73
2022/09/03 03:16:44;;;;;;;6.62;2.10;;;;;;;16.54;49.13;100844.16;1694939;84;20981;-74
2022/09/03 03:19:11;;;;;;;3.12;1.95;;;;;;;16.55;48.83;100843.66;1641511;86;21053;-73
2022/09/03 03:21:37;;;;;;;3.98;1.82;;;;;;;16.56;48.79;100848.00;1678857;85;21928;-73
2022/09/03 03:24:04;;;;;;;4.80;1.90;;;;;;;16.55;48.62;100850.33;1700633;83;20989;-73
2022/09/03 03:26:31;;;;;;;2.58;1.80;;;;;;;16.54;48.63;100852.16;1701125;84;20972;-74
2022/09/03 03:28:59;;;;;;;3.80;2.10;;;;;;;16.53;48.61;100845.16;1686525;84;21119;-73
2022/09/03 03:31:26;;;;;;;3.27;1.90;;;;;;;16.55;48.80;100851.66;1702773;84;21056;-73
2022/09/03 03:33:58;;;;;;;3.08;1.80;;;;;;;16.52;49.55;100851.97;1708002;82;22087;-73
2022/09/03 03:36:27;;;;;;;4.00;2.05;;;;;;;16.43;49.55;100861.70;1708739;82;21437;-73
2022/09/03 03:38:55;;;;;;;5.90;2.10;;;;;;;16.39;49.60;100858.13;1683753;83;21047;-73
2022/09/03 03:41:25;;;;;;;3.87;2.10;;;;;;;16.36;49.69;100862.42;1723262;83;21340;-73
2022/09/03 03:43:56;;;;;;;4.40;2.30;;;;;;;16.31;49.57;100857.55;1723037;81;21363;-72
2022/09/03 03:46:23;;;;;;;6.53;2.22;;;;;;;16.25;49.60;100862.12;1723742;83;21838;-72
2022/09/03 03:48:51;;;;;;;4.08;2.20;;;;;;;16.18;49.69;100867.69;1723206;83;21058;-73
2022/09/03 03:51:17;;;;;;;4.12;2.00;;;;;;;16.14;49.85;100869.81;1723780;83;20999;-73
2022/09/03 03:53:44;;;;;;;4.65;2.10;;;;;;;16.10;50.05;100872.89;1722636;81;20995;-72
2022/09/03 03:56:12;;;;;;;3.33;1.85;;;;;;;16.11;50.17;100871.91;1723806;83;21562;-73
2022/09/03 03:58:41;;;;;;;3.50;1.95;;;;;;;16.12;50.32;100876.28;1723059;83;21911;-73
2022/09/03 04:01:13;;;;;;;4.72;2.40;;;;;;;16.13;50.48;100876.63;1713530;81;21048;-72
2022/09/03 04:03:40;;;;;;;5.92;2.42;;;;;;;16.11;50.27;100880.74;1723671;83;20975;-72
2022/09/03 04:06:09;;;;;;;4.92;2.90;;;;;;;16.07;50.30;100880.70;1723562;83;21023;-73
2022/09/03 04:08:38;;;;;;;4.05;2.47;;;;;;;16.06;50.23;100881.69;1723576;83;21316;-73
2022/09/03 04:11:07;;;;;;;4.67;2.55;;;;;;;16.02;50.08;100883.81;1723593;83;21839;-73
2022/09/03 04:13:37;;;;;;;7.30;2.65;;;;;;;16.03;50.08;100892.15;1723399;83;21062;-73
2022/09/03 04:16:09;;;;;;;4.75;2.42;;;;;;;16.05;49.99;100887.16;1723849;83;20952;-72
2022/09/03 04:18:37;;;;;;;6.33;2.65;;;;;;;16.03;49.89;100893.97;1723227;82;21007;-73
2022/09/03 04:21:10;;;;;;;4.05;2.60;;;;;;;16.04;49.93;100895.65;1724287;81;21067;-73
2022/09/03 04:23:40;;;;;;;4.25;2.20;;;;;;;16.06;50.09;100899.50;1719982;81;21761;-73
2022/09/03 04:26:07;;;;;;;5.70;2.08;;;;;;;16.07;49.86;100895.84;1722990;83;21493;-74
2022/09/03 04:28:34;;;;;;;3.85;2.20;;;;;;;16.05;49.82;100899.99;1723491;83;21439;-73
2022/09/03 04:31:02;;;;;;;3.87;2.10;;;;;;;16.05;49.64;100896.00;1720668;83;21491;-73
2022/09/03 04:33:30;;;;;;;7.08;2.35;;;;;;;16.05;49.87;100908.48;1696775;83;21013;-73
2022/09/03 04:36:04;;;;;;;5.80;2.40;;;;;;;16.03;49.91;100904.14;1700825;83;21794;-75
2022/09/03 04:38:32;;;;;;;4.97;2.55;;;;;;;15.99;49.95;100899.23;1700503;83;20917;-72
2022/09/03 04:41:00;;;;;;;4.22;2.20;;;;;;;15.95;50.00;100895.19;1700956;84;21021;-74
2022/09/03 04:43:27;;;;;;;3.47;2.02;;;;;;;15.95;49.99;100894.69;1700285;83;21045;-74
2022/09/03 04:45:59;;;;;;;3.05;1.82;;;;;;;15.95;50.18;100888.52;1700595;84;21002;-73
2022/09/03 04:48:27;;;;;;;3.52;1.90;;;;;;;15.96;50.29;100888.37;1672303;85;21829;-72
2022/09/03 04:50:54;;;;;;;4.25;2.20;;;;;;;15.97;50.33;100884.72;1685791;84;21145;-72
2022/09/03 04:53:21;;;;;;;4.97;2.02;;;;;;;15.94;50.35;100886.34;1699726;84;20969;-72
2022/09/03 04:55:48;;;;;;;4.83;2.20;;;;;;;15.95;50.46;100882.70;1698568;84;21008;-73
2022/09/03 04:58:14;;;;;;;4.55;2.45;;;;;;;15.97;50.57;100875.39;1678498;83;21391;-72
2022/09/03 05:00:41;;;;;;;3.90;2.05;;;;;;;15.99;50.57;100875.25;1679919;84;21797;-72
2022/09/03 05:03:07;;;;;;;6.22;1.95;;;;;;;15.97;50.60;100870.06;1695215;83;21487;-72
2022/09/03 05:05:34;;;;;;;4.65;2.10;;;;;;;15.94;50.44;100875.70;1694677;83;21381;-73
2022/09/03 05:08:02;;;;;;;6.40;2.30;;;;;;;15.94;50.70;100878.36;1686621;84;21032;-72
2022/09/03 05:10:30;;;;;;;5.97;2.25;;;;;;;15.94;50.87;100881.02;1700661;84;21004;-72
2022/09/03 05:13:05;;;;;;;5.83;2.35;;;;;;;15.94;51.06;100878.36;1699182;83;21802;-72
2022/09/03 05:15:35;;;;;;;5.67;1.98;;;;;;;15.98;51.13;100876.23;1693763;83;21068;-70
2022/09/03 05:18:02;;;;;;;4.60;2.17;;;;;;;16.03;51.17;100879.31;1684690;84;20973;-74
2022/09/03 05:20:30;;;;;;;2.47;1.98;;;;;;;16.06;51.20;100880.84;1674801;84;21009;-73
2022/09/03 05:23:02;;;;;;;5.58;2.22;;;;;;;16.05;51.18;100884.00;1692250;84;21025;-75
2022/09/03 05:25:32;;;;;;;6.37;2.00;;;;;;;16.05;51.07;100892.00;1641552;85;21753;-74
2022/09/03 05:27:58;;;;;;;23.18;18.37;;;;;;;16.06;51.12;100884.34;1657161;84;21025;-73
2022/09/03 05:30:25;;;;;;;53.90;44.65;;;;;;;16.10;51.18;100885.72;1675122;85;20950;-73
2022/09/03 05:32:52;;;;;;;102.07;91.82;;;;;;;16.17;51.10;100887.33;1699342;84;21079;-73
2022/09/03 05:35:19;;;;;;;18.30;14.23;;;;;;;16.22;51.18;100883.75;1708040;84;20992;-74
2022/09/03 05:37:46;;;;;;;8.35;4.72;;;;;;;16.29;50.94;100887.48;1694154;84;22341;-73
2022/09/03 05:40:13;;;;;;;6.90;5.25;;;;;;;16.35;50.72;100898.08;1692250;84;21041;-73
2022/09/03 05:42:40;;;;;;;4.83;2.17;;;;;;;16.37;50.65;100895.59;1698051;82;21056;-73
2022/09/03 05:45:13;;;;;;;3.37;2.08;;;;;;;16.42;50.58;100895.17;1708806;83;20980;-73
2022/09/03 05:47:40;;;;;;;4.58;2.12;;;;;;;16.43;50.41;100891.02;1707159;84;20983;-72
2022/09/03 05:50:09;;;;;;;3.35;2.00;;;;;;;16.48;50.05;100895.90;1708177;82;21767;-74
2022/09/03 05:52:36;;;;;;;4.28;1.90;;;;;;;16.49;50.03;100892.24;1705659;82;21013;-76
2022/09/03 05:55:03;;;;;;;3.52;1.80;;;;;;;16.54;50.16;100898.83;1690821;82;20964;-77
2022/09/03 05:57:30;;;;;;;4.12;2.02;;;;;;;16.62;49.98;100906.09;1683955;84;21041;-73
2022/09/03 05:59:57;;;;;;;3.77;1.92;;;;;;;16.69;50.04;100902.36;1692765;84;21030;-77
2022/09/03 06:02:23;;;;;;;3.52;2.00;;;;;;;16.75;49.43;100903.94;1691423;83;21910;-73
2022/09/03 06:04:50;;;;;;;5.33;2.00;;;;;;;16.77;49.42;100896.62;1690011;83;21083;-74
2022/09/03 06:07:17;;;;;;;3.15;1.72;;;;;;;16.76;49.58;100900.78;1712370;83;21027;-74
2022/09/03 06:09:43;;;;;;;3.35;2.10;;;;;;;16.77;49.40;100901.96;1705396;82;21501;-71
2022/09/03 06:12:10;;;;;;;6.80;2.20;;;;;;;16.77;49.67;100902.45;1717329;81;21119;-83
2022/09/03 06:14:37;;;;;;;5.20;2.00;;;;;;;16.78;49.85;100903.64;1705185;83;22254;-83
2022/09/03 06:17:04;;;;;;;2.47;1.87;;;;;;;16.78;49.96;100902.30;1717086;83;20963;-75
2022/09/03 06:19:31;;;;;;;152.82;137.22;;;;;;;16.80;49.62;100906.18;1722489;83;20996;-75
2022/09/03 06:21:57;;;;;;;76.00;68.30;;;;;;;16.80;49.73;100911.02;1715974;83;21446;-75
2022/09/03 06:24:26;;;;;;;18.73;15.90;;;;;;;16.82;49.67;100906.38;1699563;83;21039;-75
2022/09/03 06:26:52;;;;;;;8.40;4.78;;;;;;;16.86;49.86;100902.89;1701565;83;22140;-75
2022/09/03 06:29:20;;;;;;;6.08;2.35;;;;;;;16.86;49.83;100904.23;1724053;83;20987;-74
2022/09/03 06:31:51;;;;;;;4.10;1.90;;;;;;;16.80;49.94;100903.52;1717390;83;21565;-74
2022/09/03 06:34:17;;;;;;;3.70;2.00;;;;;;;16.75;50.22;100899.11;1695988;82;20964;-74
2022/09/03 06:36:44;;;;;;;5.55;2.10;;;;;;;16.73;50.65;100899.26;1706029;83;21017;-74
2022/09/03 06:39:11;;;;;;;5.85;2.00;;;;;;;16.69;51.20;100907.69;1723389;82;21939;-74
2022/09/03 06:41:38;;;;;;;3.45;2.10;;;;;;;16.57;51.70;100902.52;1703915;83;21071;-74
2022/09/03 06:44:10;;;;;;;3.58;2.55;;;;;;;16.51;51.97;100901.80;1723841;83;20960;-74
2022/09/03 06:46:37;;;;;;;3.00;2.20;;;;;;;16.53;52.65;100893.64;1705522;83;20972;-74
2022/09/03 06:49:04;;;;;;;3.22;2.40;;;;;;;16.50;52.97;100894.80;1705325;83;20966;-74
2022/09/03 06:51:32;;;;;;;6.28;2.20;;;;;;;16.49;53.59;100890.41;1691274;83;21634;-74
2022/09/03 06:54:05;;;;;;;4.33;2.20;;;;;;;16.51;53.88;100893.80;1722516;83;21079;-73
2022/09/03 06:56:33;;;;;;;4.97;2.33;;;;;;;16.50;53.98;100891.25;1720148;83;20969;-74
2022/09/03 06:59:06;;;;;;;5.97;2.58;;;;;;;16.52;54.28;100898.14;1709980;83;21469;-73
2022/09/03 07:01:33;;;;;;;;;;;;;;;16.49;54.10;100900.24;1722872;83;21015;-73
2022/09/03 07:04:02;;;;;;;3.87;2.40;;;;;;;16.48;54.39;100910.56;1723876;81;21853;-75
2022/09/03 07:06:32;;;;;;;5.40;2.55;;;;;;;16.40;54.38;100912.63;1711478;83;20990;-73
2022/09/03 07:08:59;;;;;;;3.72;2.52;;;;;;;16.33;54.47;100914.22;1701640;83;21470;-73
2022/09/03 07:11:30;;;;;;;4.53;2.40;;;;;;;16.30;54.69;100914.48;1704084;83;21502;-74
2022/09/03 07:13:57;;;;;;;3.52;2.42;;;;;;;16.28;54.69;100913.80;1719611;83;21581;-75
2022/09/03 07:16:29;;;;;;;5.35;2.75;;;;;;;16.22;55.10;100911.73;1718863;83;21932;-75
2022/09/03 07:18:56;;;;;;;3.40;1.87;;;;;;;16.16;55.08;100911.81;1712041;82;21070;-75
2022/09/03 07:21:25;;;;;;;6.87;2.80;;;;;;;16.09;55.75;100921.85;1711335;82;21433;-73
2022/09/03 07:23:53;;;;;;;26.87;23.55;;;;;;;16.05;55.67;100923.98;1695384;83;20964;-75
2022/09/03 07:26:23;;;;;;;6.20;4.45;;;;;;;15.95;56.02;100921.83;1709899;83;21127;-76
2022/09/03 07:28:52;;;;;;;7.50;3.30;;;;;;;15.88;56.54;100920.21;1704832;83;21812;-75
2022/09/03 07:31:25;;;;;;;4.70;2.55;;;;;;;15.89;57.13;100927.71;1712225;81;21021;-74
2022/09/03 07:34:05;;;;;;;5.15;2.70;;;;;;;15.91;57.27;100928.41;1704210;83;21020;-74
2022/09/03 07:36:40;;;;;;;3.70;2.52;;;;;;;15.92;57.67;100926.95;1679932;84;20973;-73
2022/09/03 07:39:06;;;;;;;3.80;2.35;;;;;;;15.91;57.83;100927.07;1684024;84;21479;-75
2022/09/03 07:41:36;;;;;;;4.45;2.33;;;;;;;15.90;58.04;100934.22;1687922;84;22928;-75
2022/09/03 07:44:04;;;;;;;5.40;2.42;;;;;;;15.94;58.07;100928.14;1682180;84;21039;-75
2022/09/03 07:46:34;;;;;;;4.03;2.40;;;;;;;15.90;58.53;100922.73;1682914;83;21031;-74
2022/09/03 07:49:04;;;;;;;7.58;2.60;;;;;;;15.89;58.97;100925.89;1674848;83;21068;-75
2022/09/03 07:51:35;;;;;;;4.90;2.55;;;;;;;15.85;59.52;100920.51;1664208;85;21013;-75
2022/09/03 07:54:07;;;;;;;6.67;2.85;;;;;;;15.87;60.14;100923.02;1656874;85;21973;-74
2022/09/03 07:56:34;;;;;;;7.42;2.60;;;;;;;15.87;60.38;100931.02;1665981;85;21506;-75
2022/09/03 07:59:03;;;;;;;5.28;2.55;;;;;;;15.89;61.03;100921.05;1675714;85;21398;-75
2022/09/03 08:01:31;;;;;;;5.37;2.60;;;;;;;15.84;61.11;100921.49;1656672;85;21033;-75
2022/09/03 08:03:58;;;;;;;8.00;2.90;;;;;;;15.79;61.16;100925.55;1694003;84;21090;-74
2022/09/03 08:06:28;;;;;;;6.58;3.22;;;;;;;15.72;61.39;100923.94;1694145;83;21774;-74
2022/09/03 08:09:01;;;;;;;6.37;3.10;;;;;;;15.69;61.27;100924.23;1684976;85;21416;-74
2022/09/03 08:11:30;;;;;;;6.47;3.35;;;;;;;15.65;61.28;100917.02;1676562;83;21041;-74
2022/09/03 08:14:05;;;;;;;4.78;2.95;;;;;;;15.62;61.86;100915.11;1662951;85;21527;-74
2022/09/03 08:16:38;;;;;;;6.17;3.20;;;;;;;15.63;61.92;100915.46;1659937;85;21064;-75
2022/09/03 08:19:06;;;;;;;7.80;3.30;;;;;;;15.59;61.82;100906.05;1662012;85;21953;-74
2022/09/03 08:21:35;;;;;;;6.50;3.37;;;;;;;15.55;62.01;100903.34;1681638;85;20966;-74
2022/09/03 08:24:05;;;;;;;9.08;5.33;;;;;;;15.58;62.11;100905.22;1682930;85;21023;-73
2022/09/03 08:26:34;;;;;;;8.78;4.60;;;;;;;15.65;62.50;100898.88;1681032;85;21019;-73
2022/09/03 08:29:03;;;;;;;6.42;3.27;;;;;;;15.70;61.66;100905.94;1712747;82;20993;-74
2022/09/03 08:31:31;;;;;;;5.50;3.05;;;;;;;15.72;61.60;100905.30;1695526;83;21941;-74
2022/09/03 08:34:02;;;;;;;4.80;3.00;;;;;;;15.71;61.46;100895.63;1700930;84;21486;-74
2022/09/03 08:36:30;;;;;;;5.67;3.15;;;;;;;15.70;62.10;100895.28;1688831;83;20985;-73
2022/09/03 08:39:02;;;;;;;4.58;2.80;;;;;;;15.72;62.00;100892.81;1688565;83;21037;-73
2022/09/03 08:41:47;;;;;;;6.10;2.70;;;;;;;15.76;62.12;100888.06;1669352;83;21036;-73
2022/09/03 08:44:44;;;;;;;5.53;3.20;;;;;;;15.77;61.64;100886.23;1689145;85;22026;-73
2022/09/03 08:47:31;;;;;;;8.50;3.00;;;;;;;15.74;61.34;100885.55;1672442;84;21037;-74
2022/09/03 08:50:26;;;;;;;3.80;2.40;;;;;;;15.76;62.19;100882.73;1689844;84;21499;-74
2022/09/03 08:53:10;;;;;;;3.52;2.37;;;;;;;15.75;61.61;100873.08;1712224;83;21600;-74
2022/09/03 08:55:51;;;;;;;3.67;2.00;;;;;;;15.77;61.56;100865.77;1706513;83;21326;-74
2022/09/03 08:58:23;;;;;;;3.05;2.27;;;;;;;15.82;61.77;100865.33;1701487;83;21873;-73
2022/09/03 09:01:36;;;;;;;2.75;2.05;;;;;;;15.85;61.35;100864.56;1709408;83;20969;-78
2022/09/03 09:04:22;;;;;;;4.45;2.37;;;;;;;15.93;61.50;100867.36;1695104;82;21024;-73
2022/09/03 09:07:12;;;;;;;6.12;2.45;;;;;;;16.04;61.69;100871.67;1698104;83;21100;-72
2022/09/03 09:09:48;;;;;;;5.45;2.10;;;;;;;16.15;61.94;100865.32;1677726;83;21103;-72
2022/09/03 09:12:48;;;;;;;3.27;1.90;;;;;;;16.25;61.81;100863.45;1678955;84;21870;-72
2022/09/03 09:15:53;;;;;;;4.12;2.60;;;;;;;16.34;61.73;100861.25;1683983;85;21107;-73
2022/09/03 09:18:38;;;;;;;6.00;2.20;;;;;;;16.36;60.68;100869.93;1693205;83;21609;-72
2022/09/03 09:21:27;;;;;;;11.35;9.73;;;;;;;16.29;60.18;100859.00;1659753;86;21548;-73
2022/09/03 09:23:53;;;;;;;5.55;4.00;;;;;;;16.32;60.54;100856.56;1683607;85;21107;-72
2022/09/03 09:26:20;;;;;;;12.95;10.78;;;;;;;16.43;60.00;100852.86;1704598;83;22440;-73
2022/09/03 09:28:56;;;;;;;4.62;3.30;;;;;;;16.45;60.07;100852.21;1704532;83;21069;-72
2022/09/03 09:31:22;;;;;;;4.22;2.70;;;;;;;16.50;59.88;100852.59;1685531;83;21053;-73
2022/09/03 09:33:51;;;;;;;5.78;2.80;;;;;;;16.59;59.93;100852.53;1705388;82;21110;-73
2022/09/03 09:36:18;;;;;;;14.43;9.40;;;;;;;16.70;59.80;100861.39;1709356;83;21105;-72
2022/09/03 09:38:48;;;;;;;10.45;8.80;;;;;;;16.78;60.05;100860.95;1707756;83;21984;-72
2022/09/03 09:41:19;;;;;;;6.70;3.60;;;;;;;16.90;59.50;100866.94;1699520;83;21480;-74
2022/09/03 09:44:00;;;;;;;7.35;3.60;;;;;;;16.99;59.17;100860.70;1708827;83;21561;-71
2022/09/03 09:46:32;;;;;;;4.58;2.85;;;;;;;17.11;58.71;100863.48;1706735;83;21055;-76
2022/09/03 09:48:59;;;;;;;7.55;2.80;;;;;;;17.14;57.10;100864.50;1703221;83;21563;-80
2022/09/03 09:51:32;;;;;;;4.25;2.45;;;;;;;17.05;56.37;100868.08;1718071;83;21891;-80
2022/09/03 09:54:21;;;;;;;5.00;2.60;;;;;;;17.01;56.27;100866.72;1702013;83;21047;-75
2022/09/03 09:56:49;;;;;;;4.80;2.58;;;;;;;17.02;56.88;100853.72;1705704;83;21024;-83
2022/09/03 09:59:16;;;;;;;3.35;2.30;;;;;;;17.11;57.35;100859.48;1707937;82;21075;-83
2022/09/03 10:01:43;;;;;;;3.80;2.12;;;;;;;17.13;56.07;100860.16;1678517;83;21039;-83
2022/09/03 10:04:31;;;;;;;3.45;2.00;;;;;;;17.10;56.27;100860.97;1706015;82;21985;-84
2022/09/03 10:07:24;;;;;;;3.20;2.20;;;;;;;17.13;56.70;100859.32;1706245;83;21087;-83
2022/09/03 10:10:19;;;;;;;5.30;2.30;;;;;;;17.25;56.39;100861.26;1713727;82;21540;-79
2022/09/03 10:13:01;;;;;;;3.70;2.25;;;;;;;17.24;55.72;100858.25;1705526;83;21134;-82
2022/09/03 10:15:48;;;;;;;3.40;2.40;;;;;;;17.17;56.02;100863.34;1708176;83;21064;-79
2022/09/03 10:18:46;;;;;;;3.22;1.95;;;;;;;17.15;55.49;100858.66;1706826;83;22505;-77
2022/09/03 10:21:40;;;;;;;4.03;2.40;;;;;;;17.17;55.78;100861.52;1709443;82;21085;-81
2022/09/03 10:24:28;;;;;;;3.77;2.45;;;;;;;17.27;55.70;100870.78;1709862;82;21050;-79
2022/09/03 10:26:54;;;;;;;4.53;2.00;;;;;;;17.41;55.92;100864.08;1713247;83;21091;-80
2022/09/03 10:29:24;;;;;;;2.77;2.10;;;;;;;17.65;53.80;100863.42;1709449;83;21114;-82
2022/09/03 10:32:30;;;;;;;3.42;2.10;;;;;;;17.82;52.85;100859.07;1700550;83;21917;-82
2022/09/03 10:35:11;;;;;;;2.98;2.00;;;;;;;17.97;52.37;100854.84;1692805;83;21029;-89
2022/09/03 10:37:48;;;;;;;3.75;2.05;;;;;;;18.15;51.18;100854.28;1694311;84;21076;-86
2022/09/03 10:40:41;;;;;;;2.90;2.00;;;;;;;18.14;50.69;100853.91;1697754;84;21050;-79
2022/09/03 10:43:38;;;;;;;4.10;1.90;;;;;;;18.12;51.17;100863.93;1672708;84;21086;-79
2022/09/03 10:46:14;;;;;;;3.87;1.90;;;;;;;18.14;50.25;100868.61;1692150;83;21890;-77
2022/09/03 10:48:49;;;;;;;3.10;1.80;;;;;;;18.14;49.89;100876.63;1697822;84;21069;-77
2022/09/03 10:51:21;;;;;;;3.70;1.92;;;;;;;18.20;49.55;100876.52;1684832;84;21107;-79
2022/09/03 10:54:07;;;;;;;2.58;1.70;;;;;;;18.28;49.90;100872.55;1700178;84;21095;-78
2022/09/03 10:56:55;;;;;;;4.45;2.12;;;;;;;18.43;50.04;100863.41;1688616;84;21048;-81
2022/09/03 10:59:37;;;;;;;2.92;2.02;;;;;;;18.59;49.05;100864.31;1693236;84;22473;-81
2022/09/03 11:02:27;;;;;;;2.90;1.70;;;;;;;18.66;47.39;100851.17;1697265;82;21138;-82
2022/09/03 11:05:14;;;;;;;4.10;1.75;;;;;;;18.59;46.66;100851.44;1691608;82;20968;-87
2022/09/03 11:07:49;;;;;;;2.75;1.50;;;;;;;18.51;47.31;100850.07;1688111;84;21102;-80
2022/09/03 11:10:25;;;;;;;3.10;1.70;;;;;;;18.53;47.18;100850.77;1699209;84;21088;-73
2022/09/03 11:13:10;;;;;;;2.42;1.27;;;;;;;18.49;47.57;100848.90;1698277;84;21829;-83
2022/09/03 11:15:55;;;;;;;2.37;1.25;;;;;;;18.55;46.81;100851.44;1693369;84;20975;-81
2022/09/03 11:18:39;;;;;;;2.52;1.20;;;;;;;18.56;46.55;100852.61;1682320;84;21051;-77
2022/09/03 11:21:09;;;;;;;3.83;1.40;;;;;;;18.56;46.16;100841.91;1654132;83;20981;-78
2022/09/03 11:23:39;;;;;;;2.50;1.10;;;;;;;18.54;46.11;100840.41;1691904;82;21054;-78
2022/09/03 11:26:11;;;;;;;2.65;1.12;;;;;;;18.51;45.15;100832.68;1692677;84;21806;-78
2022/09/03 11:29:07;;;;;;;4.55;1.20;;;;;;;18.53;46.08;100832.88;1691627;84;21070;-76
2022/09/03 11:31:56;;;;;;;2.67;1.10;;;;;;;18.59;44.94;100828.70;1684878;84;21063;-78
2022/09/03 11:34:28;;;;;;;1.47;1.00;;;;;;;18.59;44.43;100828.20;1707834;83;21087;-78
2022/09/03 11:37:26;;;;;;;1.92;1.15;;;;;;;18.53;44.00;100834.22;1709051;83;21078;-78
2022/09/03 11:40:18;;;;;;;3.02;1.05;;;;;;;18.53;44.41;100836.06;1703222;83;21869;-78
2022/09/03 11:42:46;;;;;;;2.08;1.10;;;;;;;18.58;44.09;100841.24;1697331;82;21524;-72
2022/09/03 11:45:30;;;;;;;2.52;1.10;;;;;;;18.60;43.86;100835.73;1713237;83;21090;-72
2022/09/03 11:47:57;;;;;;;1.62;1.30;;;;;;;18.60;43.54;100829.87;1705787;83;21051;-74
2022/09/03 11:50:28;;;;;;;4.58;1.10;;;;;;;18.64;44.20;100829.06;1708484;83;21054;-72
2022/09/03 11:53:23;;;;;;;2.40;1.10;;;;;;;18.75;44.21;100806.55;1716520;83;22980;-72
2022/09/03 11:55:55;;;;;;;1.70;1.20;;;;;;;18.86;43.41;100799.03;1695122;83;21588;-72
2022/09/03 11:58:27;;;;;;;1.65;1.02;;;;;;;18.93;43.02;100803.73;1712487;83;21337;-70